Rohrsburg, Pennsylvania
Current Conditions -  °F | °C
As of 9:15 AM on Thursday 27 Nov 2014 (Local Time) from KHZL Reporting Station
Light Snow Light Snow  
Wind Chill: 20°   Ceiling: 300
Heat Index: 28°   Visibility: 3mi
Dew Point: 28°   Wind: 8mph
Humidity: 100%   Direction: 290°WNW
Pressure: 29.99"   Gusts: NA
Location:  41.1114°N, 76.3684°W
Report Text: KHZL 271415Z AUTO 29007KT 3SM -SN OVC003 M02/M02 A2999 RMK AO2
Loading
Personal Weather Stations






























Interactive Weather Map New forecast layout! Learn more

10-Day Weather Forecast

Advertisements
Track Severe Weather on mobile